sensor_id;sensor_type;location;lat;lon;timestamp;pressure;altitude;pressure_sealevel;temperature;humidity
21658;BME280;10990;48.174;9.782;2022-07-23T00:00:20;94637.94;;;22.43;100.00
21658;BME280;10990;48.174;9.782;2022-07-23T00:02:48;94620.97;;;22.65;100.00
21658;BME280;10990;48.174;9.782;2022-07-23T00:05:17;94600.97;;;22.60;100.00
21658;BME280;10990;48.174;9.782;2022-07-23T00:07:44;94590.91;;;21.95;100.00
21658;BME280;10990;48.174;9.782;2022-07-23T00:10:11;94562.97;;;22.01;100.00
21658;BME280;10990;48.174;9.782;2022-07-23T00:12:39;94559.75;;;21.99;100.00
21658;BME280;10990;48.174;9.782;2022-07-23T00:15:09;94563.78;;;22.19;100.00
21658;BME280;10990;48.174;9.782;2022-07-23T00:17:37;94548.56;;;21.74;100.00
21658;BME280;10990;48.174;9.782;2022-07-23T00:20:07;94501.13;;;21.67;100.00
21658;BME280;10990;48.174;9.782;2022-07-23T00:22:34;94471.81;;;21.88;100.00
21658;BME280;10990;48.174;9.782;2022-07-23T00:25:02;94452.22;;;21.92;100.00
21658;BME280;10990;48.174;9.782;2022-07-23T00:27:29;94393.78;;;21.93;100.00
21658;BME280;10990;48.174;9.782;2022-07-23T00:29:55;94403.19;;;21.68;100.00
21658;BME280;10990;48.174;9.782;2022-07-23T00:32:23;94357.63;;;21.62;100.00
21658;BME280;10990;48.174;9.782;2022-07-23T00:34:50;94357.94;;;21.87;100.00
21658;BME280;10990;48.174;9.782;2022-07-23T00:37:18;94332.22;;;22.24;100.00
21658;BME280;10990;48.174;9.782;2022-07-23T00:39:45;94295.41;;;22.34;100.00
21658;BME280;10990;48.174;9.782;2022-07-23T00:42:14;94304.56;;;22.06;100.00
21658;BME280;10990;48.174;9.782;2022-07-23T00:44:41;94304.88;;;21.83;100.00
21658;BME280;10990;48.174;9.782;2022-07-23T00:47:09;94289.72;;;21.77;100.00
21658;BME280;10990;48.174;9.782;2022-07-23T00:49:37;94287.16;;;21.65;100.00
21658;BME280;10990;48.174;9.782;2022-07-23T00:52:05;94285.19;;;21.55;100.00
21658;BME280;10990;48.174;9.782;2022-07-23T00:54:33;94282.63;;;21.65;100.00
21658;BME280;10990;48.174;9.782;2022-07-23T00:57:01;94295.50;;;21.63;100.00
21658;BME280;10990;48.174;9.782;2022-07-23T00:59:29;94316.66;;;21.77;100.00
21658;BME280;10990;48.174;9.782;2022-07-23T01:01:57;94353.84;;;21.85;100.00
21658;BME280;10990;48.174;9.782;2022-07-23T01:04:24;94382.41;;;22.08;100.00
21658;BME280;10990;48.174;9.782;2022-07-23T01:06:51;94401.63;;;21.94;100.00
21658;BME280;10990;48.174;9.782;2022-07-23T01:09:18;94397.69;;;21.58;100.00
21658;BME280;10990;48.174;9.782;2022-07-23T01:11:47;94391.94;;;21.71;100.00
21658;BME280;10990;48.174;9.782;2022-07-23T01:14:16;94390.06;;;21.72;100.00
21658;BME280;10990;48.174;9.782;2022-07-23T01:16:47;94413.13;;;21.68;100.00
21658;BME280;10990;48.174;9.782;2022-07-23T01:19:15;94443.75;;;21.45;100.00
21658;BME280;10990;48.174;9.782;2022-07-23T01:21:44;94459.31;;;21.60;100.00
21658;BME280;10990;48.174;9.782;2022-07-23T01:24:13;94473.44;;;21.50;100.00
21658;BME280;10990;48.174;9.782;2022-07-23T01:26:51;94455.25;;;21.57;100.00
21658;BME280;10990;48.174;9.782;2022-07-23T01:29:19;94441.66;;;21.47;100.00
21658;BME280;10990;48.174;9.782;2022-07-23T01:31:48;94425.47;;;21.64;100.00
21658;BME280;10990;48.174;9.782;2022-07-23T01:34:15;94411.56;;;21.33;100.00
21658;BME280;10990;48.174;9.782;2022-07-23T01:36:43;94370.25;;;20.84;100.00
21658;BME280;10990;48.174;9.782;2022-07-23T01:39:10;94330.34;;;20.75;100.00
21658;BME280;10990;48.174;9.782;2022-07-23T01:41:39;94325.84;;;20.81;100.00
21658;BME280;10990;48.174;9.782;2022-07-23T01:44:07;94327.13;;;20.95;100.00
21658;BME280;10990;48.174;9.782;2022-07-23T01:46:38;94327.13;;;20.95;100.00
21658;BME280;10990;48.174;9.782;2022-07-23T01:49:06;94338.50;;;21.02;100.00
21658;BME280;10990;48.174;9.782;2022-07-23T01:51:59;94337.22;;;21.05;100.00
21658;BME280;10990;48.174;9.782;2022-07-23T01:54:33;94336.06;;;21.18;100.00
21658;BME280;10990;48.174;9.782;2022-07-23T01:57:07;94352.75;;;21.20;100.00
21658;BME280;10990;48.174;9.782;2022-07-23T01:59:34;94382.00;;;21.16;100.00
21658;BME280;10990;48.174;9.782;2022-07-23T02:02:03;94389.53;;;21.36;100.00
21658;BME280;10990;48.174;9.782;2022-07-23T02:04:32;94391.09;;;21.49;100.00
21658;BME280;10990;48.174;9.782;2022-07-23T02:07:02;94394.34;;;21.34;100.00
21658;BME280;10990;48.174;9.782;2022-07-23T02:09:30;94393.47;;;21.12;100.00
21658;BME280;10990;48.174;9.782;2022-07-23T02:11:58;94395.72;;;20.81;100.00
21658;BME280;10990;48.174;9.782;2022-07-23T02:14:26;94401.66;;;20.83;100.00
21658;BME280;10990;48.174;9.782;2022-07-23T02:16:54;94391.47;;;20.85;100.00
21658;BME280;10990;48.174;9.782;2022-07-23T02:19:21;94394.47;;;20.89;100.00
21658;BME280;10990;48.174;9.782;2022-07-23T02:21:48;94411.09;;;20.69;100.00
21658;BME280;10990;48.174;9.782;2022-07-23T02:24:18;94419.41;;;20.84;100.00
21658;BME280;10990;48.174;9.782;2022-07-23T02:26:46;94422.25;;;20.77;100.00
21658;BME280;10990;48.174;9.782;2022-07-23T02:29:13;94409.88;;;20.59;100.00
21658;BME280;10990;48.174;9.782;2022-07-23T02:31:42;94387.22;;;20.27;100.00
21658;BME280;10990;48.174;9.782;2022-07-23T02:34:09;94369.75;;;20.41;100.00
21658;BME280;10990;48.174;9.782;2022-07-23T02:36:38;94347.28;;;20.59;100.00
21658;BME280;10990;48.174;9.782;2022-07-23T02:39:05;94339.28;;;20.81;100.00
21658;BME280;10990;48.174;9.782;2022-07-23T02:41:34;94343.91;;;20.86;100.00
21658;BME280;10990;48.174;9.782;2022-07-23T02:44:01;94354.16;;;20.89;100.00
21658;BME280;10990;48.174;9.782;2022-07-23T02:46:29;94379.25;;;20.60;100.00
21658;BME280;10990;48.174;9.782;2022-07-23T02:48:59;94386.81;;;20.80;100.00
21658;BME280;10990;48.174;9.782;2022-07-23T02:51:26;94401.16;;;20.69;100.00
21658;BME280;10990;48.174;9.782;2022-07-23T02:53:57;94431.19;;;20.66;100.00
21658;BME280;10990;48.174;9.782;2022-07-23T02:56:25;94462.94;;;20.69;100.00
21658;BME280;10990;48.174;9.782;2022-07-23T02:58:52;94480.47;;;20.72;100.00
21658;BME280;10990;48.174;9.782;2022-07-23T03:01:21;94493.81;;;20.67;100.00
21658;BME280;10990;48.174;9.782;2022-07-23T03:03:47;94488.91;;;20.64;100.00
21658;BME280;10990;48.174;9.782;2022-07-23T03:06:16;94476.69;;;20.56;100.00
21658;BME280;10990;48.174;9.782;2022-07-23T03:08:43;94449.94;;;20.61;100.00
21658;BME280;10990;48.174;9.782;2022-07-23T03:11:10;94428.22;;;20.51;100.00
21658;BME280;10990;48.174;9.782;2022-07-23T03:13:38;94408.75;;;20.72;100.00
21658;BME280;10990;48.174;9.782;2022-07-23T03:16:07;94416.81;;;20.44;100.00
21658;BME280;10990;48.174;9.782;2022-07-23T03:18:35;94388.00;;;20.39;100.00
21658;BME280;10990;48.174;9.782;2022-07-23T03:21:03;94364.72;;;20.28;100.00
21658;BME280;10990;48.174;9.782;2022-07-23T03:23:32;94311.47;;;20.08;100.00
21658;BME280;10990;48.174;9.782;2022-07-23T03:25:59;94268.13;;;20.16;100.00
21658;BME280;10990;48.174;9.782;2022-07-23T03:30:53;94238.19;;;20.58;100.00
21658;BME280;10990;48.174;9.782;2022-07-23T03:33:20;94244.69;;;20.45;100.00
21658;BME280;10990;48.174;9.782;2022-07-23T03:35:49;94244.13;;;20.26;100.00
21658;BME280;10990;48.174;9.782;2022-07-23T03:38:25;94239.72;;;20.37;100.00
21658;BME280;10990;48.174;9.782;2022-07-23T03:40:54;94213.47;;;20.22;100.00
21658;BME280;10990;48.174;9.782;2022-07-23T03:43:21;94188.66;;;19.98;100.00
21658;BME280;10990;48.174;9.782;2022-07-23T03:45:51;94160.91;;;20.09;100.00
21658;BME280;10990;48.174;9.782;2022-07-23T03:48:18;94140.91;;;20.00;100.00
21658;BME280;10990;48.174;9.782;2022-07-23T03:50:46;94138.88;;;20.07;100.00
21658;BME280;10990;48.174;9.782;2022-07-23T03:53:12;94126.59;;;20.11;100.00
21658;BME280;10990;48.174;9.782;2022-07-23T03:55:40;94111.94;;;20.19;100.00
21658;BME280;10990;48.174;9.782;2022-07-23T03:58:09;94110.91;;;19.86;100.00
21658;BME280;10990;48.174;9.782;2022-07-23T04:00:36;94096.09;;;20.01;100.00
21658;BME280;10990;48.174;9.782;2022-07-23T04:03:03;94066.91;;;20.04;100.00
21658;BME280;10990;48.174;9.782;2022-07-23T04:05:32;94053.66;;;19.98;100.00
21658;BME280;10990;48.174;9.782;2022-07-23T04:08:05;94043.47;;;19.44;100.00
21658;BME280;10990;48.174;9.782;2022-07-23T04:10:37;94014.19;;;19.59;100.00
21658;BME280;10990;48.174;9.782;2022-07-23T04:13:06;94005.00;;;20.11;100.00
21658;BME280;10990;48.174;9.782;2022-07-23T04:15:34;94023.75;;;20.28;100.00
21658;BME280;10990;48.174;9.782;2022-07-23T04:18:05;94054.06;;;20.28;100.00
21658;BME280;10990;48.174;9.782;2022-07-23T04:20:48;94065.91;;;19.72;100.00
21658;BME280;10990;48.174;9.782;2022-07-23T04:23:15;94031.75;;;19.33;100.00
21658;BME280;10990;48.174;9.782;2022-07-23T04:25:44;93988.34;;;19.70;100.00
21658;BME280;10990;48.174;9.782;2022-07-23T04:28:10;93972.25;;;19.70;100.00
21658;BME280;10990;48.174;9.782;2022-07-23T04:30:39;93986.44;;;19.48;100.00
21658;BME280;10990;48.174;9.782;2022-07-23T04:33:08;93980.81;;;19.67;100.00
21658;BME280;10990;48.174;9.782;2022-07-23T04:35:37;93985.63;;;19.87;100.00
21658;BME280;10990;48.174;9.782;2022-07-23T04:38:12;94000.56;;;19.44;100.00
21658;BME280;10990;48.174;9.782;2022-07-23T04:40:40;93995.34;;;19.54;100.00
21658;BME280;10990;48.174;9.782;2022-07-23T04:43:07;94003.25;;;20.00;100.00
21658;BME280;10990;48.174;9.782;2022-07-23T04:45:42;94032.97;;;20.15;100.00
21658;BME280;10990;48.174;9.782;2022-07-23T04:48:09;94053.63;;;20.14;100.00
21658;BME280;10990;48.174;9.782;2022-07-23T04:50:37;94077.06;;;20.19;100.00
21658;BME280;10990;48.174;9.782;2022-07-23T04:53:05;94133.75;;;20.06;100.00
21658;BME280;10990;48.174;9.782;2022-07-23T04:55:33;94141.78;;;19.55;100.00
21658;BME280;10990;48.174;9.782;2022-07-23T04:58:00;94128.81;;;19.81;100.00
21658;BME280;10990;48.174;9.782;2022-07-23T05:00:28;94115.78;;;19.89;100.00
21658;BME280;10990;48.174;9.782;2022-07-23T05:02:57;94098.63;;;19.90;100.00
21658;BME280;10990;48.174;9.782;2022-07-23T05:05:25;94115.72;;;19.67;100.00
21658;BME280;10990;48.174;9.782;2022-07-23T05:07:58;94129.47;;;20.05;100.00
21658;BME280;10990;48.174;9.782;2022-07-23T05:10:26;94127.41;;;19.95;100.00
21658;BME280;10990;48.174;9.782;2022-07-23T05:12:53;94134.34;;;19.91;100.00
21658;BME280;10990;48.174;9.782;2022-07-23T05:15:21;94146.84;;;20.19;100.00
21658;BME280;10990;48.174;9.782;2022-07-23T05:17:49;94173.19;;;20.22;100.00
21658;BME280;10990;48.174;9.782;2022-07-23T05:20:18;94218.25;;;19.86;100.00
21658;BME280;10990;48.174;9.782;2022-07-23T05:22:46;94201.34;;;19.57;100.00
21658;BME280;10990;48.174;9.782;2022-07-23T05:25:13;94200.28;;;19.58;100.00
21658;BME280;10990;48.174;9.782;2022-07-23T05:27:41;94194.56;;;19.66;100.00
21658;BME280;10990;48.174;9.782;2022-07-23T05:30:09;94203.25;;;19.74;100.00
21658;BME280;10990;48.174;9.782;2022-07-23T05:32:40;94196.78;;;19.86;100.00
21658;BME280;10990;48.174;9.782;2022-07-23T05:35:15;94223.38;;;19.88;100.00
21658;BME280;10990;48.174;9.782;2022-07-23T05:37:55;94229.00;;;20.03;100.00
21658;BME280;10990;48.174;9.782;2022-07-23T05:40:23;94219.28;;;19.57;100.00
21658;BME280;10990;48.174;9.782;2022-07-23T05:42:49;94200.09;;;19.48;100.00
21658;BME280;10990;48.174;9.782;2022-07-23T05:45:17;94170.59;;;19.77;100.00
21658;BME280;10990;48.174;9.782;2022-07-23T05:47:48;94153.56;;;19.25;100.00
21658;BME280;10990;48.174;9.782;2022-07-23T05:50:24;94111.56;;;19.43;100.00
21658;BME280;10990;48.174;9.782;2022-07-23T05:53:00;94116.97;;;19.65;100.00
21658;BME280;10990;48.174;9.782;2022-07-23T05:55:49;94125.72;;;19.72;100.00
21658;BME280;10990;48.174;9.782;2022-07-23T05:58:16;94120.53;;;19.82;100.00
21658;BME280;10990;48.174;9.782;2022-07-23T06:00:44;94112.94;;;19.96;100.00
21658;BME280;10990;48.174;9.782;2022-07-23T06:03:12;94128.09;;;20.24;100.00
21658;BME280;10990;48.174;9.782;2022-07-23T06:05:39;94134.50;;;19.84;100.00
21658;BME280;10990;48.174;9.782;2022-07-23T06:08:09;94095.22;;;19.44;100.00
21658;BME280;10990;48.174;9.782;2022-07-23T06:10:37;94076.63;;;19.55;100.00
21658;BME280;10990;48.174;9.782;2022-07-23T06:13:04;94057.66;;;19.61;100.00
21658;BME280;10990;48.174;9.782;2022-07-23T06:15:34;94044.00;;;20.19;100.00
21658;BME280;10990;48.174;9.782;2022-07-23T06:18:01;94074.63;;;20.40;100.00
21658;BME280;10990;48.174;9.782;2022-07-23T06:20:28;94106.03;;;20.39;100.00
21658;BME280;10990;48.174;9.782;2022-07-23T06:22:57;94124.38;;;20.25;100.00
21658;BME280;10990;48.174;9.782;2022-07-23T06:25:25;94151.31;;;20.30;100.00
21658;BME280;10990;48.174;9.782;2022-07-23T06:30:20;94167.91;;;20.66;100.00
21658;BME280;10990;48.174;9.782;2022-07-23T06:32:48;94155.94;;;20.74;100.00
21658;BME280;10990;48.174;9.782;2022-07-23T06:35:16;94141.91;;;20.50;100.00
21658;BME280;10990;48.174;9.782;2022-07-23T06:37:45;94142.50;;;20.74;100.00
21658;BME280;10990;48.174;9.782;2022-07-23T06:40:13;94138.56;;;20.81;100.00
21658;BME280;10990;48.174;9.782;2022-07-23T06:42:42;94153.81;;;20.98;100.00
21658;BME280;10990;48.174;9.782;2022-07-23T06:45:17;94185.78;;;20.99;100.00
21658;BME280;10990;48.174;9.782;2022-07-23T06:47:46;94220.00;;;21.04;100.00
21658;BME280;10990;48.174;9.782;2022-07-23T06:50:13;94196.63;;;21.04;100.00
21658;BME280;10990;48.174;9.782;2022-07-23T06:52:41;94174.47;;;21.19;100.00
21658;BME280;10990;48.174;9.782;2022-07-23T06:55:09;94187.59;;;21.16;100.00
21658;BME280;10990;48.174;9.782;2022-07-23T06:57:37;94211.97;;;21.31;100.00
21658;BME280;10990;48.174;9.782;2022-07-23T07:00:08;94211.88;;;21.43;100.00
21658;BME280;10990;48.174;9.782;2022-07-23T07:02:35;94241.69;;;22.18;100.00
21658;BME280;10990;48.174;9.782;2022-07-23T07:05:03;94308.56;;;23.38;100.00
21658;BME280;10990;48.174;9.782;2022-07-23T07:07:31;94385.59;;;23.18;100.00
21658;BME280;10990;48.174;9.782;2022-07-23T07:09:59;94415.81;;;24.15;100.00
21658;BME280;10990;48.174;9.782;2022-07-23T07:12:26;94491.16;;;24.70;100.00
21658;BME280;10990;48.174;9.782;2022-07-23T07:14:53;94541.59;;;25.47;100.00
21658;BME280;10990;48.174;9.782;2022-07-23T07:17:22;94577.38;;;25.96;100.00
21658;BME280;10990;48.174;9.782;2022-07-23T07:19:50;94634.22;;;26.47;100.00
21658;BME280;10990;48.174;9.782;2022-07-23T07:22:16;94661.09;;;26.53;100.00
21658;BME280;10990;48.174;9.782;2022-07-23T07:24:44;94705.19;;;27.00;100.00
21658;BME280;10990;48.174;9.782;2022-07-23T07:27:10;94731.81;;;26.93;100.00
21658;BME280;10990;48.174;9.782;2022-07-23T07:29:37;94763.53;;;27.08;100.00
21658;BME280;10990;48.174;9.782;2022-07-23T07:32:05;94766.28;;;26.77;100.00
21658;BME280;10990;48.174;9.782;2022-07-23T07:34:34;94757.06;;;26.22;100.00
21658;BME280;10990;48.174;9.782;2022-07-23T07:37:01;94726.72;;;26.50;100.00
21658;BME280;10990;48.174;9.782;2022-07-23T07:39:29;94778.19;;;26.96;100.00
21658;BME280;10990;48.174;9.782;2022-07-23T07:41:56;94800.41;;;27.34;100.00
21658;BME280;10990;48.174;9.782;2022-07-23T07:44:23;94796.59;;;27.40;100.00
21658;BME280;10990;48.174;9.782;2022-07-23T07:46:51;94825.94;;;28.13;100.00
21658;BME280;10990;48.174;9.782;2022-07-23T07:49:18;94836.34;;;28.41;100.00
21658;BME280;10990;48.174;9.782;2022-07-23T07:51:46;94883.03;;;28.13;100.00
21658;BME280;10990;48.174;9.782;2022-07-23T07:54:14;94876.50;;;28.04;100.00
21658;BME280;10990;48.174;9.782;2022-07-23T07:56:41;94862.41;;;28.02;100.00
21658;BME280;10990;48.174;9.782;2022-07-23T07:59:08;94890.19;;;27.84;100.00
21658;BME280;10990;48.174;9.782;2022-07-23T08:01:36;94901.44;;;27.26;100.00
21658;BME280;10990;48.174;9.782;2022-07-23T08:04:03;94885.34;;;26.48;100.00
21658;BME280;10990;48.174;9.782;2022-07-23T08:06:30;94879.13;;;26.52;100.00
21658;BME280;10990;48.174;9.782;2022-07-23T08:09:00;94851.41;;;26.40;100.00
21658;BME280;10990;48.174;9.782;2022-07-23T08:11:27;94868.03;;;26.90;100.00
21658;BME280;10990;48.174;9.782;2022-07-23T08:13:55;94874.53;;;26.73;100.00
21658;BME280;10990;48.174;9.782;2022-07-23T08:16:23;94870.16;;;25.79;100.00
21658;BME280;10990;48.174;9.782;2022-07-23T08:18:50;94842.78;;;26.69;100.00
21658;BME280;10990;48.174;9.782;2022-07-23T08:21:18;94894.91;;;27.37;100.00
21658;BME280;10990;48.174;9.782;2022-07-23T08:23:45;94949.97;;;27.89;100.00
21658;BME280;10990;48.174;9.782;2022-07-23T08:26:13;94999.47;;;27.65;100.00
21658;BME280;10990;48.174;9.782;2022-07-23T08:28:40;94943.53;;;27.18;100.00
21658;BME280;10990;48.174;9.782;2022-07-23T08:31:07;94911.59;;;26.32;100.00
21658;BME280;10990;48.174;9.782;2022-07-23T08:33:36;94863.06;;;26.30;100.00
21658;BME280;10990;48.174;9.782;2022-07-23T08:36:04;94842.28;;;25.78;100.00
21658;BME280;10990;48.174;9.782;2022-07-23T08:38:32;94854.34;;;26.18;100.00
21658;BME280;10990;48.174;9.782;2022-07-23T08:41:01;94831.88;;;26.23;100.00
21658;BME280;10990;48.174;9.782;2022-07-23T08:43:31;94811.56;;;26.30;100.00
21658;BME280;10990;48.174;9.782;2022-07-23T08:46:00;94804.63;;;25.77;100.00
21658;BME280;10990;48.174;9.782;2022-07-23T08:48:29;94801.09;;;25.81;100.00
21658;BME280;10990;48.174;9.782;2022-07-23T08:50:59;94779.41;;;25.66;100.00
21658;BME280;10990;48.174;9.782;2022-07-23T08:53:28;94776.03;;;25.38;100.00
21658;BME280;10990;48.174;9.782;2022-07-23T08:55:56;94752.34;;;25.81;100.00
21658;BME280;10990;48.174;9.782;2022-07-23T08:58:24;94760.25;;;25.88;100.00
21658;BME280;10990;48.174;9.782;2022-07-23T09:00:54;94777.09;;;26.05;100.00
21658;BME280;10990;48.174;9.782;2022-07-23T09:03:23;94778.53;;;25.55;100.00
21658;BME280;10990;48.174;9.782;2022-07-23T09:05:52;94759.59;;;25.55;100.00
21658;BME280;10990;48.174;9.782;2022-07-23T09:08:21;94804.78;;;26.48;100.00
21658;BME280;10990;48.174;9.782;2022-07-23T09:10:51;94822.16;;;26.93;100.00
21658;BME280;10990;48.174;9.782;2022-07-23T09:13:32;94849.00;;;27.31;100.00
21658;BME280;10990;48.174;9.782;2022-07-23T09:16:06;94925.50;;;27.94;100.00
21658;BME280;10990;48.174;9.782;2022-07-23T09:18:40;94980.59;;;28.25;100.00
21658;BME280;10990;48.174;9.782;2022-07-23T09:21:15;95051.56;;;28.99;100.00
21658;BME280;10990;48.174;9.782;2022-07-23T09:23:44;95123.22;;;28.89;100.00
21658;BME280;10990;48.174;9.782;2022-07-23T09:26:31;95171.50;;;28.48;100.00
21658;BME280;10990;48.174;9.782;2022-07-23T09:29:00;95133.44;;;27.86;100.00
21658;BME280;10990;48.174;9.782;2022-07-23T09:31:41;95101.09;;;27.90;100.00
21658;BME280;10990;48.174;9.782;2022-07-23T09:34:15;95068.22;;;27.91;100.00
21658;BME280;10990;48.174;9.782;2022-07-23T09:36:43;95031.22;;;27.65;100.00
21658;BME280;10990;48.174;9.782;2022-07-23T09:39:11;95056.50;;;27.50;100.00
21658;BME280;10990;48.174;9.782;2022-07-23T09:41:41;95018.44;;;27.76;100.00
21658;BME280;10990;48.174;9.782;2022-07-23T09:44:10;94995.88;;;28.01;100.00
21658;BME280;10990;48.174;9.782;2022-07-23T09:46:40;95053.72;;;28.27;100.00
21658;BME280;10990;48.174;9.782;2022-07-23T09:49:20;95102.16;;;28.20;100.00
21658;BME280;10990;48.174;9.782;2022-07-23T09:51:52;95123.06;;;28.39;100.00
21658;BME280;10990;48.174;9.782;2022-07-23T09:54:24;95146.94;;;28.83;100.00
21658;BME280;10990;48.174;9.782;2022-07-23T09:56:54;95173.94;;;28.39;100.00
21658;BME280;10990;48.174;9.782;2022-07-23T09:59:23;95201.84;;;29.11;100.00
21658;BME280;10990;48.174;9.782;2022-07-23T10:01:56;95259.78;;;29.37;100.00
21658;BME280;10990;48.174;9.782;2022-07-23T10:04:26;95228.25;;;29.16;100.00
21658;BME280;10990;48.174;9.782;2022-07-23T10:07:13;95228.56;;;29.04;100.00
21658;BME280;10990;48.174;9.782;2022-07-23T10:10:17;95255.88;;;29.54;100.00
21658;BME280;10990;48.174;9.782;2022-07-23T10:13:04;95287.00;;;29.47;100.00
21658;BME280;10990;48.174;9.782;2022-07-23T10:16:04;95295.69;;;29.60;100.00
21658;BME280;10990;48.174;9.782;2022-07-23T10:18:33;95328.19;;;30.11;100.00
21658;BME280;10990;48.174;9.782;2022-07-23T10:21:06;95354.69;;;30.00;100.00
21658;BME280;10990;48.174;9.782;2022-07-23T10:23:38;95362.66;;;29.86;100.00
21658;BME280;10990;48.174;9.782;2022-07-23T10:26:15;95326.72;;;29.59;100.00
21658;BME280;10990;48.174;9.782;2022-07-23T10:29:12;95316.22;;;29.26;100.00
21658;BME280;10990;48.174;9.782;2022-07-23T10:31:50;95259.94;;;28.55;100.00
21658;BME280;10990;48.174;9.782;2022-07-23T10:34:24;95261.75;;;29.16;100.00
21658;BME280;10990;48.174;9.782;2022-07-23T10:36:58;95298.22;;;29.25;100.00
21658;BME280;10990;48.174;9.782;2022-07-23T10:39:28;95269.41;;;29.04;100.00
21658;BME280;10990;48.174;9.782;2022-07-23T10:42:08;95228.00;;;29.17;100.00
21658;BME280;10990;48.174;9.782;2022-07-23T10:44:41;95274.56;;;29.05;100.00
21658;BME280;10990;48.174;9.782;2022-07-23T10:47:10;95258.59;;;29.69;100.00
21658;BME280;10990;48.174;9.782;2022-07-23T10:50:22;95267.91;;;29.47;100.00
21658;BME280;10990;48.174;9.782;2022-07-23T10:55:50;95256.19;;;29.47;100.00
21658;BME280;10990;48.174;9.782;2022-07-23T10:58:23;95302.03;;;29.24;100.00
21658;BME280;10990;48.174;9.782;2022-07-23T11:00:51;95273.78;;;28.90;100.00
21658;BME280;10990;48.174;9.782;2022-07-23T11:03:32;95261.81;;;28.70;100.00
21658;BME280;10990;48.174;9.782;2022-07-23T11:06:04;95265.63;;;28.59;100.00
21658;BME280;10990;48.174;9.782;2022-07-23T11:08:33;95246.56;;;28.23;100.00
21658;BME280;10990;48.174;9.782;2022-07-23T11:11:10;95204.69;;;28.50;100.00
21658;BME280;10990;48.174;9.782;2022-07-23T11:16:18;95248.22;;;28.65;100.00
21658;BME280;10990;48.174;9.782;2022-07-23T11:19:05;95287.13;;;28.81;100.00
21658;BME280;10990;48.174;9.782;2022-07-23T11:21:51;95312.97;;;28.94;100.00
21658;BME280;10990;48.174;9.782;2022-07-23T11:24:23;95333.66;;;28.95;100.00
21658;BME280;10990;48.174;9.782;2022-07-23T11:27:11;95269.41;;;28.89;100.00
21658;BME280;10990;48.174;9.782;2022-07-23T11:29:46;95302.09;;;28.78;100.00
21658;BME280;10990;48.174;9.782;2022-07-23T11:32:27;95304.56;;;28.70;100.00
21658;BME280;10990;48.174;9.782;2022-07-23T11:34:58;95298.78;;;29.02;100.00
21658;BME280;10990;48.174;9.782;2022-07-23T11:37:33;95280.56;;;29.18;100.00
21658;BME280;10990;48.174;9.782;2022-07-23T11:40:04;95342.91;;;29.30;100.00
21658;BME280;10990;48.174;9.782;2022-07-23T11:42:34;95337.69;;;29.48;100.00
21658;BME280;10990;48.174;9.782;2022-07-23T11:45:03;95370.41;;;29.33;100.00
21658;BME280;10990;48.174;9.782;2022-07-23T11:47:30;95363.63;;;29.20;100.00
21658;BME280;10990;48.174;9.782;2022-07-23T11:50:00;95307.50;;;29.24;100.00
21658;BME280;10990;48.174;9.782;2022-07-23T11:52:30;95267.53;;;28.89;100.00
21658;BME280;10990;48.174;9.782;2022-07-23T11:54:58;95262.09;;;28.74;100.00
21658;BME280;10990;48.174;9.782;2022-07-23T11:57:27;95249.84;;;28.66;100.00
21658;BME280;10990;48.174;9.782;2022-07-23T11:59:56;95255.50;;;29.11;100.00
21658;BME280;10990;48.174;9.782;2022-07-23T12:02:25;95281.94;;;28.44;100.00
21658;BME280;10990;48.174;9.782;2022-07-23T12:04:53;95305.38;;;28.70;100.00
21658;BME280;10990;48.174;9.782;2022-07-23T12:07:26;95301.56;;;28.61;100.00
21658;BME280;10990;48.174;9.782;2022-07-23T12:09:55;95263.44;;;28.87;100.00
21658;BME280;10990;48.174;9.782;2022-07-23T12:12:23;95259.88;;;28.96;100.00
21658;BME280;10990;48.174;9.782;2022-07-23T12:14:53;95327.13;;;28.86;100.00
21658;BME280;10990;48.174;9.782;2022-07-23T12:17:28;95270.13;;;29.40;100.00
21658;BME280;10990;48.174;9.782;2022-07-23T12:19:56;95296.38;;;29.00;100.00
21658;BME280;10990;48.174;9.782;2022-07-23T12:22:24;95337.44;;;29.40;100.00
21658;BME280;10990;48.174;9.782;2022-07-23T12:24:58;95346.63;;;29.75;100.00
21658;BME280;10990;48.174;9.782;2022-07-23T12:27:27;95336.00;;;29.58;100.00
21658;BME280;10990;48.174;9.782;2022-07-23T12:29:54;95326.31;;;29.16;100.00
21658;BME280;10990;48.174;9.782;2022-07-23T12:32:23;95330.63;;;29.32;100.00
21658;BME280;10990;48.174;9.782;2022-07-23T12:35:03;95324.94;;;29.13;100.00
21658;BME280;10990;48.174;9.782;2022-07-23T12:37:33;95318.38;;;29.40;100.00
21658;BME280;10990;48.174;9.782;2022-07-23T12:40:21;95367.97;;;29.11;100.00
21658;BME280;10990;48.174;9.782;2022-07-23T12:42:51;95347.84;;;29.12;100.00
21658;BME280;10990;48.174;9.782;2022-07-23T12:45:19;95348.66;;;29.23;100.00
21658;BME280;10990;48.174;9.782;2022-07-23T12:48:02;95364.69;;;29.35;100.00
21658;BME280;10990;48.174;9.782;2022-07-23T12:50:40;95360.56;;;29.68;100.00
21658;BME280;10990;48.174;9.782;2022-07-23T12:53:11;95428.94;;;29.61;100.00
21658;BME280;10990;48.174;9.782;2022-07-23T12:55:44;95380.69;;;29.62;100.00
21658;BME280;10990;48.174;9.782;2022-07-23T12:58:15;95378.31;;;29.19;100.00
21658;BME280;10990;48.174;9.782;2022-07-23T13:00:55;95354.88;;;29.34;100.00
21658;BME280;10990;48.174;9.782;2022-07-23T13:03:24;95313.75;;;29.20;100.00
21658;BME280;10990;48.174;9.782;2022-07-23T13:05:52;95310.25;;;28.89;100.00
21658;BME280;10990;48.174;9.782;2022-07-23T13:08:19;95198.41;;;27.83;100.00
21658;BME280;10990;48.174;9.782;2022-07-23T13:10:49;95127.72;;;28.44;100.00
21658;BME280;10990;48.174;9.782;2022-07-23T13:13:17;95155.06;;;28.89;100.00
21658;BME280;10990;48.174;9.782;2022-07-23T13:15:44;95150.03;;;29.32;100.00